sensor_id;sensor_type;location;lat;lon;timestamp;temperature;humidity
20881;DHT22;10600;53.096;8.802;2023-02-11T00:01:04;6.80;99.90
20881;DHT22;10600;53.096;8.802;2023-02-11T00:02:05;6.80;99.90
20881;DHT22;10600;53.096;8.802;2023-02-11T00:03:06;6.80;99.90
20881;DHT22;10600;53.096;8.802;2023-02-11T00:04:07;6.80;99.90
20881;DHT22;10600;53.096;8.802;2023-02-11T00:05:07;6.80;99.90
20881;DHT22;10600;53.096;8.802;2023-02-11T00:06:09;6.80;99.90
20881;DHT22;10600;53.096;8.802;2023-02-11T00:07:10;6.80;99.90
20881;DHT22;10600;53.096;8.802;2023-02-11T00:08:11;6.90;99.90
20881;DHT22;10600;53.096;8.802;2023-02-11T00:09:16;6.90;99.90
20881;DHT22;10600;53.096;8.802;2023-02-11T00:10:16;6.90;99.90
20881;DHT22;10600;53.096;8.802;2023-02-11T00:11:19;6.90;99.90
20881;DHT22;10600;53.096;8.802;2023-02-11T00:12:20;6.90;99.90
20881;DHT22;10600;53.096;8.802;2023-02-11T00:13:21;6.90;99.90
20881;DHT22;10600;53.096;8.802;2023-02-11T00:14:22;6.90;99.90
20881;DHT22;10600;53.096;8.802;2023-02-11T00:15:22;6.90;99.90
20881;DHT22;10600;53.096;8.802;2023-02-11T00:16:23;6.90;99.90
20881;DHT22;10600;53.096;8.802;2023-02-11T00:17:23;6.90;99.90
20881;DHT22;10600;53.096;8.802;2023-02-11T00:18:24;6.90;99.90
20881;DHT22;10600;53.096;8.802;2023-02-11T00:19:25;6.90;99.90
20881;DHT22;10600;53.096;8.802;2023-02-11T00:20:25;6.90;99.90
20881;DHT22;10600;53.096;8.802;2023-02-11T00:21:26;6.90;99.90
20881;DHT22;10600;53.096;8.802;2023-02-11T00:22:27;6.90;99.90
20881;DHT22;10600;53.096;8.802;2023-02-11T00:23:28;6.90;99.90
20881;DHT22;10600;53.096;8.802;2023-02-11T00:24:28;6.90;99.90
20881;DHT22;10600;53.096;8.802;2023-02-11T00:25:29;6.90;99.90
20881;DHT22;10600;53.096;8.802;2023-02-11T00:26:32;6.90;99.90
20881;DHT22;10600;53.096;8.802;2023-02-11T00:27:33;6.90;99.90
20881;DHT22;10600;53.096;8.802;2023-02-11T00:28:33;6.90;99.90
20881;DHT22;10600;53.096;8.802;2023-02-11T00:29:35;6.90;99.90
20881;DHT22;10600;53.096;8.802;2023-02-11T00:30:36;6.90;99.90
20881;DHT22;10600;53.096;8.802;2023-02-11T00:31:37;6.90;99.90
20881;DHT22;10600;53.096;8.802;2023-02-11T00:32:38;6.90;99.90
20881;DHT22;10600;53.096;8.802;2023-02-11T00:33:38;6.90;99.90
20881;DHT22;10600;53.096;8.802;2023-02-11T00:34:39;6.90;99.90
20881;DHT22;10600;53.096;8.802;2023-02-11T00:35:40;6.90;99.90
20881;DHT22;10600;53.096;8.802;2023-02-11T00:36:40;7.00;99.90
20881;DHT22;10600;53.096;8.802;2023-02-11T00:37:41;7.00;99.90
20881;DHT22;10600;53.096;8.802;2023-02-11T00:38:43;7.00;99.90
20881;DHT22;10600;53.096;8.802;2023-02-11T00:39:43;6.90;99.90
20881;DHT22;10600;53.096;8.802;2023-02-11T00:40:44;7.00;99.90
20881;DHT22;10600;53.096;8.802;2023-02-11T00:41:45;7.00;99.90
20881;DHT22;10600;53.096;8.802;2023-02-11T00:42:45;7.00;99.90
20881;DHT22;10600;53.096;8.802;2023-02-11T00:43:48;7.00;99.90
20881;DHT22;10600;53.096;8.802;2023-02-11T00:44:49;7.00;99.90
20881;DHT22;10600;53.096;8.802;2023-02-11T00:45:49;7.00;99.90
20881;DHT22;10600;53.096;8.802;2023-02-11T00:46:50;7.00;99.90
20881;DHT22;10600;53.096;8.802;2023-02-11T00:47:51;7.00;99.90
20881;DHT22;10600;53.096;8.802;2023-02-11T00:48:51;7.00;99.90
20881;DHT22;10600;53.096;8.802;2023-02-11T00:49:54;7.00;99.90
20881;DHT22;10600;53.096;8.802;2023-02-11T00:50:55;7.00;99.90
20881;DHT22;10600;53.096;8.802;2023-02-11T00:51:55;7.00;99.90
20881;DHT22;10600;53.096;8.802;2023-02-11T00:52:56;7.00;99.90
20881;DHT22;10600;53.096;8.802;2023-02-11T00:53:57;7.00;99.90
20881;DHT22;10600;53.096;8.802;2023-02-11T00:54:57;7.00;99.90
20881;DHT22;10600;53.096;8.802;2023-02-11T00:55:58;7.00;99.90
20881;DHT22;10600;53.096;8.802;2023-02-11T00:57:00;7.00;99.90
20881;DHT22;10600;53.096;8.802;2023-02-11T00:58:00;7.00;99.90
20881;DHT22;10600;53.096;8.802;2023-02-11T00:59:01;7.00;99.90
20881;DHT22;10600;53.096;8.802;2023-02-11T01:00:04;7.00;99.90
20881;DHT22;10600;53.096;8.802;2023-02-11T01:01:05;7.00;99.90
20881;DHT22;10600;53.096;8.802;2023-02-11T01:02:05;7.00;99.90
20881;DHT22;10600;53.096;8.802;2023-02-11T01:03:06;7.00;99.90
20881;DHT22;10600;53.096;8.802;2023-02-11T01:04:06;7.00;99.90
20881;DHT22;10600;53.096;8.802;2023-02-11T01:05:07;7.00;99.90
20881;DHT22;10600;53.096;8.802;2023-02-11T01:06:08;7.00;99.90
20881;DHT22;10600;53.096;8.802;2023-02-11T01:07:09;7.00;99.90
20881;DHT22;10600;53.096;8.802;2023-02-11T01:08:09;7.00;99.90
20881;DHT22;10600;53.096;8.802;2023-02-11T01:09:10;7.00;99.90
20881;DHT22;10600;53.096;8.802;2023-02-11T01:10:11;7.00;99.90
20881;DHT22;10600;53.096;8.802;2023-02-11T01:11:15;7.00;99.90
20881;DHT22;10600;53.096;8.802;2023-02-11T01:12:16;7.00;99.90
20881;DHT22;10600;53.096;8.802;2023-02-11T01:13:16;7.00;99.90
20881;DHT22;10600;53.096;8.802;2023-02-11T01:14:17;7.00;99.90
20881;DHT22;10600;53.096;8.802;2023-02-11T01:15:18;7.00;99.90
20881;DHT22;10600;53.096;8.802;2023-02-11T01:16:20;7.00;99.90
20881;DHT22;10600;53.096;8.802;2023-02-11T01:17:21;7.00;99.90
20881;DHT22;10600;53.096;8.802;2023-02-11T01:18:22;7.00;99.90
20881;DHT22;10600;53.096;8.802;2023-02-11T01:19:22;7.00;99.90
20881;DHT22;10600;53.096;8.802;2023-02-11T01:20:25;7.00;99.90
20881;DHT22;10600;53.096;8.802;2023-02-11T01:21:26;7.00;99.90
20881;DHT22;10600;53.096;8.802;2023-02-11T01:22:27;7.00;99.90
20881;DHT22;10600;53.096;8.802;2023-02-11T01:23:27;7.00;99.90
20881;DHT22;10600;53.096;8.802;2023-02-11T01:24:28;7.00;99.90
20881;DHT22;10600;53.096;8.802;2023-02-11T01:25:28;7.00;99.90
20881;DHT22;10600;53.096;8.802;2023-02-11T01:26:29;7.00;99.90
20881;DHT22;10600;53.096;8.802;2023-02-11T01:27:30;7.00;99.90
20881;DHT22;10600;53.096;8.802;2023-02-11T01:28:31;7.00;99.90
20881;DHT22;10600;53.096;8.802;2023-02-11T01:29:32;7.00;99.90
20881;DHT22;10600;53.096;8.802;2023-02-11T01:30:32;7.00;99.90
20881;DHT22;10600;53.096;8.802;2023-02-11T01:31:33;7.00;99.90
20881;DHT22;10600;53.096;8.802;2023-02-11T01:32:34;7.00;99.90
20881;DHT22;10600;53.096;8.802;2023-02-11T01:33:34;7.00;99.90
20881;DHT22;10600;53.096;8.802;2023-02-11T01:34:35;7.00;99.90
20881;DHT22;10600;53.096;8.802;2023-02-11T01:35:37;7.00;99.90
20881;DHT22;10600;53.096;8.802;2023-02-11T01:36:38;7.00;99.90
20881;DHT22;10600;53.096;8.802;2023-02-11T01:37:39;7.00;99.90
20881;DHT22;10600;53.096;8.802;2023-02-11T01:38:39;7.00;99.90
20881;DHT22;10600;53.096;8.802;2023-02-11T01:39:40;7.00;99.90
20881;DHT22;10600;53.096;8.802;2023-02-11T01:40:49;7.00;99.90
20881;DHT22;10600;53.096;8.802;2023-02-11T01:41:51;7.10;99.90
20881;DHT22;10600;53.096;8.802;2023-02-11T01:42:51;7.00;99.90
20881;DHT22;10600;53.096;8.802;2023-02-11T01:43:52;7.00;99.90
20881;DHT22;10600;53.096;8.802;2023-02-11T01:44:53;7.00;99.90
20881;DHT22;10600;53.096;8.802;2023-02-11T01:46:05;7.00;99.90
20881;DHT22;10600;53.096;8.802;2023-02-11T01:47:11;7.00;99.90
20881;DHT22;10600;53.096;8.802;2023-02-11T01:48:19;7.10;99.90
20881;DHT22;10600;53.096;8.802;2023-02-11T01:50:24;7.10;99.90
20881;DHT22;10600;53.096;8.802;2023-02-11T01:51:54;7.10;99.90
20881;DHT22;10600;53.096;8.802;2023-02-11T01:52:55;7.10;99.90
20881;DHT22;10600;53.096;8.802;2023-02-11T01:54:20;7.10;99.90
20881;DHT22;10600;53.096;8.802;2023-02-11T01:55:40;7.10;99.90
20881;DHT22;10600;53.096;8.802;2023-02-11T01:57:01;7.10;99.90
20881;DHT22;10600;53.096;8.802;2023-02-11T01:58:21;7.10;99.90
20881;DHT22;10600;53.096;8.802;2023-02-11T01:59:28;7.10;99.90
20881;DHT22;10600;53.096;8.802;2023-02-11T02:00:33;7.10;99.90
20881;DHT22;10600;53.096;8.802;2023-02-11T02:01:38;7.10;99.90
20881;DHT22;10600;53.096;8.802;2023-02-11T02:03:03;7.10;99.90
20881;DHT22;10600;53.096;8.802;2023-02-11T02:04:06;7.10;99.90
20881;DHT22;10600;53.096;8.802;2023-02-11T02:06:54;7.10;99.90
20881;DHT22;10600;53.096;8.802;2023-02-11T02:07:59;7.20;99.90
20881;DHT22;10600;53.096;8.802;2023-02-11T02:09:07;7.20;99.90
20881;DHT22;10600;53.096;8.802;2023-02-11T02:10:14;7.20;99.90
20881;DHT22;10600;53.096;8.802;2023-02-11T02:11:16;7.20;99.90
20881;DHT22;10600;53.096;8.802;2023-02-11T02:12:17;7.20;99.90
20881;DHT22;10600;53.096;8.802;2023-02-11T02:13:19;7.20;99.90
20881;DHT22;10600;53.096;8.802;2023-02-11T02:14:19;7.20;99.90
20881;DHT22;10600;53.096;8.802;2023-02-11T02:16:33;7.20;99.90
20881;DHT22;10600;53.096;8.802;2023-02-11T02:17:40;7.20;99.90
20881;DHT22;10600;53.096;8.802;2023-02-11T02:21:05;7.20;99.90
20881;DHT22;10600;53.096;8.802;2023-02-11T02:24:26;7.20;99.90
20881;DHT22;10600;53.096;8.802;2023-02-11T02:28:13;7.20;99.90
20881;DHT22;10600;53.096;8.802;2023-02-11T02:32:57;7.20;99.90
20881;DHT22;10600;53.096;8.802;2023-02-11T02:34:05;7.20;99.90
20881;DHT22;10600;53.096;8.802;2023-02-11T02:36:40;7.20;99.90
20881;DHT22;10600;53.096;8.802;2023-02-11T02:37:56;7.20;99.90
20881;DHT22;10600;53.096;8.802;2023-02-11T02:39:12;7.20;99.90
20881;DHT22;10600;53.096;8.802;2023-02-11T02:40:58;7.20;99.90
20881;DHT22;10600;53.096;8.802;2023-02-11T02:41:51;7.20;99.90
20881;DHT22;10600;53.096;8.802;2023-02-11T02:42:53;7.20;99.90
20881;DHT22;10600;53.096;8.802;2023-02-11T02:43:54;7.20;99.90
20881;DHT22;10600;53.096;8.802;2023-02-11T02:44:55;7.20;99.90
20881;DHT22;10600;53.096;8.802;2023-02-11T02:46:15;7.20;99.90
20881;DHT22;10600;53.096;8.802;2023-02-11T02:47:16;7.30;99.90
20881;DHT22;10600;53.096;8.802;2023-02-11T02:49:27;7.20;99.90
20881;DHT22;10600;53.096;8.802;2023-02-11T02:50:32;7.30;99.90
20881;DHT22;10600;53.096;8.802;2023-02-11T02:51:55;7.20;99.90
20881;DHT22;10600;53.096;8.802;2023-02-11T02:54:34;7.20;99.90
20881;DHT22;10600;53.096;8.802;2023-02-11T02:59:42;7.30;99.90
20881;DHT22;10600;53.096;8.802;2023-02-11T03:01:17;7.20;99.90
20881;DHT22;10600;53.096;8.802;2023-02-11T03:05:20;7.20;99.90
20881;DHT22;10600;53.096;8.802;2023-02-11T03:06:27;7.20;99.90
20881;DHT22;10600;53.096;8.802;2023-02-11T03:07:56;7.20;99.90
20881;DHT22;10600;53.096;8.802;2023-02-11T03:09:28;7.20;99.90
20881;DHT22;10600;53.096;8.802;2023-02-11T03:10:35;7.20;99.90
20881;DHT22;10600;53.096;8.802;2023-02-11T03:11:37;7.30;99.90
20881;DHT22;10600;53.096;8.802;2023-02-11T03:12:38;7.30;99.90
20881;DHT22;10600;53.096;8.802;2023-02-11T03:13:41;7.20;99.90
20881;DHT22;10600;53.096;8.802;2023-02-11T03:14:43;7.20;99.90
20881;DHT22;10600;53.096;8.802;2023-02-11T03:15:47;7.30;99.90
20881;DHT22;10600;53.096;8.802;2023-02-11T03:16:50;7.20;99.90
20881;DHT22;10600;53.096;8.802;2023-02-11T03:17:53;7.20;99.90
20881;DHT22;10600;53.096;8.802;2023-02-11T03:18:59;7.30;99.90
20881;DHT22;10600;53.096;8.802;2023-02-11T03:20:04;7.30;99.90
20881;DHT22;10600;53.096;8.802;2023-02-11T03:21:08;7.30;99.90
20881;DHT22;10600;53.096;8.802;2023-02-11T03:22:21;7.30;99.90
20881;DHT22;10600;53.096;8.802;2023-02-11T03:23:34;7.30;99.90
20881;DHT22;10600;53.096;8.802;2023-02-11T03:24:37;7.30;99.90
20881;DHT22;10600;53.096;8.802;2023-02-11T03:25:50;7.30;99.90
20881;DHT22;10600;53.096;8.802;2023-02-11T03:26:54;7.30;99.90
20881;DHT22;10600;53.096;8.802;2023-02-11T03:28:25;7.30;99.90
20881;DHT22;10600;53.096;8.802;2023-02-11T03:29:36;7.20;99.90
20881;DHT22;10600;53.096;8.802;2023-02-11T03:30:52;7.30;99.90
20881;DHT22;10600;53.096;8.802;2023-02-11T03:32:10;7.30;99.90
20881;DHT22;10600;53.096;8.802;2023-02-11T03:33:23;7.30;99.90
20881;DHT22;10600;53.096;8.802;2023-02-11T03:35:40;7.30;99.90
20881;DHT22;10600;53.096;8.802;2023-02-11T03:36:53;7.30;99.90
20881;DHT22;10600;53.096;8.802;2023-02-11T03:38:10;7.30;99.90
20881;DHT22;10600;53.096;8.802;2023-02-11T03:39:15;7.30;99.90
20881;DHT22;10600;53.096;8.802;2023-02-11T03:40:30;7.30;99.90
20881;DHT22;10600;53.096;8.802;2023-02-11T03:41:32;7.30;99.90
20881;DHT22;10600;53.096;8.802;2023-02-11T03:42:39;7.30;99.90
20881;DHT22;10600;53.096;8.802;2023-02-11T03:43:45;7.30;99.90
20881;DHT22;10600;53.096;8.802;2023-02-11T03:45:00;7.30;99.90
20881;DHT22;10600;53.096;8.802;2023-02-11T03:46:03;7.30;99.90
20881;DHT22;10600;53.096;8.802;2023-02-11T03:47:07;7.30;99.90
20881;DHT22;10600;53.096;8.802;2023-02-11T03:48:19;7.30;99.90
20881;DHT22;10600;53.096;8.802;2023-02-11T03:49:23;7.30;99.90
20881;DHT22;10600;53.096;8.802;2023-02-11T03:50:29;7.30;99.90
20881;DHT22;10600;53.096;8.802;2023-02-11T03:51:32;7.40;99.90
20881;DHT22;10600;53.096;8.802;2023-02-11T03:52:34;7.40;99.90
20881;DHT22;10600;53.096;8.802;2023-02-11T03:53:38;7.40;99.90
20881;DHT22;10600;53.096;8.802;2023-02-11T03:54:41;7.40;99.90
20881;DHT22;10600;53.096;8.802;2023-02-11T03:55:43;7.40;99.90
20881;DHT22;10600;53.096;8.802;2023-02-11T03:56:53;7.40;99.90
20881;DHT22;10600;53.096;8.802;2023-02-11T03:57:55;7.40;99.90
20881;DHT22;10600;53.096;8.802;2023-02-11T03:58:56;7.40;99.90
20881;DHT22;10600;53.096;8.802;2023-02-11T03:59:58;7.40;99.90
20881;DHT22;10600;53.096;8.802;2023-02-11T04:00:59;7.40;99.90
20881;DHT22;10600;53.096;8.802;2023-02-11T04:02:01;7.40;99.90
20881;DHT22;10600;53.096;8.802;2023-02-11T04:03:03;7.40;99.90
20881;DHT22;10600;53.096;8.802;2023-02-11T04:04:04;7.40;99.90
20881;DHT22;10600;53.096;8.802;2023-02-11T04:05:06;7.40;99.90
20881;DHT22;10600;53.096;8.802;2023-02-11T04:06:08;7.40;99.90
20881;DHT22;10600;53.096;8.802;2023-02-11T04:07:11;7.40;99.90
20881;DHT22;10600;53.096;8.802;2023-02-11T04:08:11;7.40;99.90
20881;DHT22;10600;53.096;8.802;2023-02-11T04:09:12;7.40;99.90
20881;DHT22;10600;53.096;8.802;2023-02-11T04:10:13;7.40;99.90
20881;DHT22;10600;53.096;8.802;2023-02-11T04:11:13;7.40;99.90
20881;DHT22;10600;53.096;8.802;2023-02-11T04:12:14;7.40;99.90
20881;DHT22;10600;53.096;8.802;2023-02-11T04:13:14;7.40;99.90
20881;DHT22;10600;53.096;8.802;2023-02-11T04:14:15;7.40;99.90
20881;DHT22;10600;53.096;8.802;2023-02-11T04:15:16;7.40;99.90
20881;DHT22;10600;53.096;8.802;2023-02-11T04:16:16;7.40;99.90
20881;DHT22;10600;53.096;8.802;2023-02-11T04:17:17;7.40;99.90
20881;DHT22;10600;53.096;8.802;2023-02-11T04:18:18;7.40;99.90
20881;DHT22;10600;53.096;8.802;2023-02-11T04:19:18;7.50;99.90
20881;DHT22;10600;53.096;8.802;2023-02-11T04:20:19;7.50;99.90
20881;DHT22;10600;53.096;8.802;2023-02-11T04:21:20;7.50;99.90
20881;DHT22;10600;53.096;8.802;2023-02-11T04:22:20;7.50;99.90
20881;DHT22;10600;53.096;8.802;2023-02-11T04:23:21;7.50;99.90
20881;DHT22;10600;53.096;8.802;2023-02-11T04:24:21;7.50;99.90
20881;DHT22;10600;53.096;8.802;2023-02-11T04:25:22;7.50;99.90
20881;DHT22;10600;53.096;8.802;2023-02-11T04:26:23;7.50;99.90
20881;DHT22;10600;53.096;8.802;2023-02-11T04:27:23;7.50;99.90
20881;DHT22;10600;53.096;8.802;2023-02-11T04:28:24;7.50;99.90
20881;DHT22;10600;53.096;8.802;2023-02-11T04:29:26;7.50;99.90
20881;DHT22;10600;53.096;8.802;2023-02-11T04:30:27;7.50;99.90
20881;DHT22;10600;53.096;8.802;2023-02-11T04:31:28;7.50;99.90
20881;DHT22;10600;53.096;8.802;2023-02-11T04:32:28;7.50;99.90
20881;DHT22;10600;53.096;8.802;2023-02-11T04:33:29;7.50;99.90
20881;DHT22;10600;53.096;8.802;2023-02-11T04:34:29;7.50;99.90
20881;DHT22;10600;53.096;8.802;2023-02-11T04:35:30;7.50;99.90
20881;DHT22;10600;53.096;8.802;2023-02-11T04:36:31;7.50;99.90
20881;DHT22;10600;53.096;8.802;2023-02-11T04:37:31;7.50;99.90
20881;DHT22;10600;53.096;8.802;2023-02-11T04:38:32;7.50;99.90
20881;DHT22;10600;53.096;8.802;2023-02-11T04:39:33;7.50;99.90
20881;DHT22;10600;53.096;8.802;2023-02-11T04:40:34;7.50;99.90
20881;DHT22;10600;53.096;8.802;2023-02-11T04:41:34;7.50;99.90
20881;DHT22;10600;53.096;8.802;2023-02-11T04:42:35;7.50;99.90
20881;DHT22;10600;53.096;8.802;2023-02-11T04:43:35;7.50;99.90
20881;DHT22;10600;53.096;8.802;2023-02-11T04:44:36;7.50;99.90
20881;DHT22;10600;53.096;8.802;2023-02-11T04:45:37;7.50;99.90
20881;DHT22;10600;53.096;8.802;2023-02-11T04:46:37;7.60;99.90
20881;DHT22;10600;53.096;8.802;2023-02-11T04:47:38;7.50;99.90
20881;DHT22;10600;53.096;8.802;2023-02-11T04:48:39;7.50;99.90
20881;DHT22;10600;53.096;8.802;2023-02-11T04:49:39;7.50;99.90
20881;DHT22;10600;53.096;8.802;2023-02-11T04:50:40;7.60;99.90
20881;DHT22;10600;53.096;8.802;2023-02-11T04:51:41;7.50;99.90
20881;DHT22;10600;53.096;8.802;2023-02-11T04:52:44;7.50;99.90
20881;DHT22;10600;53.096;8.802;2023-02-11T04:53:44;7.60;99.90
20881;DHT22;10600;53.096;8.802;2023-02-11T04:54:45;7.50;99.90
20881;DHT22;10600;53.096;8.802;2023-02-11T04:55:48;7.60;99.90
20881;DHT22;10600;53.096;8.802;2023-02-11T04:56:49;7.60;99.90
20881;DHT22;10600;53.096;8.802;2023-02-11T04:57:50;7.60;99.90
20881;DHT22;10600;53.096;8.802;2023-02-11T04:58:51;7.60;99.90
20881;DHT22;10600;53.096;8.802;2023-02-11T04:59:51;7.60;99.90
20881;DHT22;10600;53.096;8.802;2023-02-11T05:00:52;7.60;99.90
20881;DHT22;10600;53.096;8.802;2023-02-11T05:01:53;7.60;99.90
20881;DHT22;10600;53.096;8.802;2023-02-11T05:02:53;7.60;99.90
20881;DHT22;10600;53.096;8.802;2023-02-11T05:03:54;7.60;99.90
20881;DHT22;10600;53.096;8.802;2023-02-11T05:04:54;7.60;99.90
20881;DHT22;10600;53.096;8.802;2023-02-11T05:05:55;7.60;99.90
20881;DHT22;10600;53.096;8.802;2023-02-11T05:06:56;7.60;99.90
20881;DHT22;10600;53.096;8.802;2023-02-11T05:07:56;7.60;99.90
20881;DHT22;10600;53.096;8.802;2023-02-11T05:08:57;7.60;99.90
20881;DHT22;10600;53.096;8.802;2023-02-11T05:09:57;7.60;99.90
20881;DHT22;10600;53.096;8.802;2023-02-11T05:10:58;7.60;99.90
20881;DHT22;10600;53.096;8.802;2023-02-11T05:11:59;7.60;99.90
20881;DHT22;10600;53.096;8.802;2023-02-11T05:13:00;7.60;99.90
20881;DHT22;10600;53.096;8.802;2023-02-11T05:14:00;7.60;99.90
20881;DHT22;10600;53.096;8.802;2023-02-11T05:15:01;7.60;99.90
20881;DHT22;10600;53.096;8.802;2023-02-11T05:16:02;7.60;99.90
20881;DHT22;10600;53.096;8.802;2023-02-11T05:17:02;7.60;99.90
20881;DHT22;10600;53.096;8.802;2023-02-11T05:18:03;7.60;99.90
20881;DHT22;10600;53.096;8.802;2023-02-11T05:19:04;7.60;99.90
20881;DHT22;10600;53.096;8.802;2023-02-11T05:20:05;7.60;99.90
20881;DHT22;10600;53.096;8.802;2023-02-11T05:21:13;7.60;99.90
20881;DHT22;10600;53.096;8.802;2023-02-11T05:22:14;7.60;99.90
20881;DHT22;10600;53.096;8.802;2023-02-11T05:23:15;7.60;99.90
20881;DHT22;10600;53.096;8.802;2023-02-11T05:24:15;7.60;99.90
20881;DHT22;10600;53.096;8.802;2023-02-11T05:25:16;7.60;99.90
20881;DHT22;10600;53.096;8.802;2023-02-11T05:26:17;7.60;99.90
20881;DHT22;10600;53.096;8.802;2023-02-11T05:27:18;7.60;99.90
20881;DHT22;10600;53.096;8.802;2023-02-11T05:28:18;7.60;99.90
20881;DHT22;10600;53.096;8.802;2023-02-11T05:29:19;7.60;99.90
20881;DHT22;10600;53.096;8.802;2023-02-11T05:30:19;7.60;99.90
20881;DHT22;10600;53.096;8.802;2023-02-11T05:31:20;7.60;99.90
20881;DHT22;10600;53.096;8.802;2023-02-11T05:32:21;7.60;99.90
20881;DHT22;10600;53.096;8.802;2023-02-11T05:33:22;7.60;99.90
20881;DHT22;10600;53.096;8.802;2023-02-11T05:34:22;7.60;99.90
20881;DHT22;10600;53.096;8.802;2023-02-11T05:35:23;7.60;99.90
20881;DHT22;10600;53.096;8.802;2023-02-11T05:36:24;7.60;99.90
20881;DHT22;10600;53.096;8.802;2023-02-11T05:37:24;7.60;99.90
20881;DHT22;10600;53.096;8.802;2023-02-11T05:38:25;7.60;99.90
20881;DHT22;10600;53.096;8.802;2023-02-11T05:39:26;7.60;99.90
20881;DHT22;10600;53.096;8.802;2023-02-11T05:40:26;7.60;99.90
20881;DHT22;10600;53.096;8.802;2023-02-11T05:41:27;7.60;99.90
20881;DHT22;10600;53.096;8.802;2023-02-11T05:42:27;7.60;99.90
20881;DHT22;10600;53.096;8.802;2023-02-11T05:43:28;7.60;99.90
20881;DHT22;10600;53.096;8.802;2023-02-11T05:44:29;7.60;99.90
20881;DHT22;10600;53.096;8.802;2023-02-11T05:45:29;7.60;99.90
20881;DHT22;10600;53.096;8.802;2023-02-11T05:46:30;7.60;99.90
20881;DHT22;10600;53.096;8.802;2023-02-11T05:47:31;7.60;99.90
20881;DHT22;10600;53.096;8.802;2023-02-11T05:48:31;7.60;99.90
20881;DHT22;10600;53.096;8.802;2023-02-11T05:49:32;7.60;99.90
20881;DHT22;10600;53.096;8.802;2023-02-11T05:50:33;7.60;99.90
20881;DHT22;10600;53.096;8.802;2023-02-11T05:51:33;7.50;99.90
20881;DHT22;10600;53.096;8.802;2023-02-11T05:52:34;7.50;99.90
20881;DHT22;10600;53.096;8.802;2023-02-11T05:53:34;7.60;99.90
20881;DHT22;10600;53.096;8.802;2023-02-11T05:54:35;7.50;99.90
20881;DHT22;10600;53.096;8.802;2023-02-11T05:55:36;7.50;99.90
20881;DHT22;10600;53.096;8.802;2023-02-11T05:56:36;7.50;99.90
20881;DHT22;10600;53.096;8.802;2023-02-11T05:57:37;7.50;99.90
20881;DHT22;10600;53.096;8.802;2023-02-11T05:58:38;7.50;99.90
20881;DHT22;10600;53.096;8.802;2023-02-11T05:59:39;7.50;99.90
20881;DHT22;10600;53.096;8.802;2023-02-11T06:00:39;7.50;99.90
20881;DHT22;10600;53.096;8.802;2023-02-11T06:01:40;7.40;99.90
20881;DHT22;10600;53.096;8.802;2023-02-11T06:02:41;7.40;99.90
20881;DHT22;10600;53.096;8.802;2023-02-11T06:03:41;7.50;99.90
20881;DHT22;10600;53.096;8.802;2023-02-11T06:04:42;7.40;99.90
20881;DHT22;10600;53.096;8.802;2023-02-11T06:05:44;7.50;99.90
20881;DHT22;10600;53.096;8.802;2023-02-11T06:06:44;7.40;99.90
20881;DHT22;10600;53.096;8.802;2023-02-11T06:07:45;7.40;99.90
20881;DHT22;10600;53.096;8.802;2023-02-11T06:08:46;7.40;99.90
20881;DHT22;10600;53.096;8.802;2023-02-11T06:09:46;7.40;99.90
20881;DHT22;10600;53.096;8.802;2023-02-11T06:10:47;7.40;99.90
20881;DHT22;10600;53.096;8.802;2023-02-11T06:11:47;7.40;99.90
20881;DHT22;10600;53.096;8.802;2023-02-11T06:12:48;7.40;99.90
20881;DHT22;10600;53.096;8.802;2023-02-11T06:13:49;7.40;99.90
20881;DHT22;10600;53.096;8.802;2023-02-11T06:14:50;7.40;99.90
20881;DHT22;10600;53.096;8.802;2023-02-11T06:15:57;7.50;99.90
20881;DHT22;10600;53.096;8.802;2023-02-11T06:16:58;7.40;99.90
20881;DHT22;10600;53.096;8.802;2023-02-11T06:17:59;7.50;99.90
20881;DHT22;10600;53.096;8.802;2023-02-11T06:19:00;7.40;99.90
20881;DHT22;10600;53.096;8.802;2023-02-11T06:20:01;7.40;99.90
20881;DHT22;10600;53.096;8.802;2023-02-11T06:21:06;7.40;99.90
20881;DHT22;10600;53.096;8.802;2023-02-11T06:22:07;7.40;99.90
20881;DHT22;10600;53.096;8.802;2023-02-11T06:23:08;7.40;99.90
20881;DHT22;10600;53.096;8.802;2023-02-11T06:24:08;7.40;99.90
20881;DHT22;10600;53.096;8.802;2023-02-11T06:25:09;7.40;99.90
20881;DHT22;10600;53.096;8.802;2023-02-11T06:26:17;7.40;99.90
20881;DHT22;10600;53.096;8.802;2023-02-11T06:27:18;7.40;99.90
20881;DHT22;10600;53.096;8.802;2023-02-11T06:28:19;7.40;99.90
20881;DHT22;10600;53.096;8.802;2023-02-11T06:29:19;7.40;99.90
20881;DHT22;10600;53.096;8.802;2023-02-11T06:30:20;7.40;99.90
20881;DHT22;10600;53.096;8.802;2023-02-11T06:31:20;7.50;99.90
20881;DHT22;10600;53.096;8.802;2023-02-11T06:32:21;7.40;99.90
20881;DHT22;10600;53.096;8.802;2023-02-11T06:33:22;7.50;99.90
20881;DHT22;10600;53.096;8.802;2023-02-11T06:34:23;7.50;99.90
20881;DHT22;10600;53.096;8.802;2023-02-11T06:35:23;7.40;99.90
20881;DHT22;10600;53.096;8.802;2023-02-11T06:36:24;7.40;99.90
20881;DHT22;10600;53.096;8.802;2023-02-11T06:37:25;7.40;99.90
20881;DHT22;10600;53.096;8.802;2023-02-11T06:38:26;7.40;99.90
20881;DHT22;10600;53.096;8.802;2023-02-11T06:39:26;7.40;99.90
20881;DHT22;10600;53.096;8.802;2023-02-11T06:40:27;7.50;99.90
20881;DHT22;10600;53.096;8.802;2023-02-11T06:41:27;7.40;99.90
20881;DHT22;10600;53.096;8.802;2023-02-11T06:42:28;7.40;99.90
20881;DHT22;10600;53.096;8.802;2023-02-11T06:43:29;7.40;99.90
20881;DHT22;10600;53.096;8.802;2023-02-11T06:44:29;7.40;99.90
20881;DHT22;10600;53.096;8.802;2023-02-11T06:45:31;7.40;99.90
20881;DHT22;10600;53.096;8.802;2023-02-11T06:46:32;7.40;99.90
20881;DHT22;10600;53.096;8.802;2023-02-11T06:47:32;7.40;99.90
20881;DHT22;10600;53.096;8.802;2023-02-11T06:48:33;7.40;99.90
20881;DHT22;10600;53.096;8.802;2023-02-11T06:49:34;7.40;99.90
20881;DHT22;10600;53.096;8.802;2023-02-11T06:50:35;7.40;99.90
20881;DHT22;10600;53.096;8.802;2023-02-11T06:51:35;7.40;99.90
20881;DHT22;10600;53.096;8.802;2023-02-11T06:52:36;7.40;99.90
20881;DHT22;10600;53.096;8.802;2023-02-11T06:53:41;7.40;99.90
20881;DHT22;10600;53.096;8.802;2023-02-11T06:54:42;7.40;99.90
20881;DHT22;10600;53.096;8.802;2023-02-11T06:55:43;7.40;99.90
20881;DHT22;10600;53.096;8.802;2023-02-11T06:56:43;7.40;99.90
20881;DHT22;10600;53.096;8.802;2023-02-11T06:57:44;7.40;99.90
20881;DHT22;10600;53.096;8.802;2023-02-11T06:58:45;7.40;99.90
20881;DHT22;10600;53.096;8.802;2023-02-11T06:59:46;7.40;99.90
20881;DHT22;10600;53.096;8.802;2023-02-11T07:00:47;7.40;99.90
20881;DHT22;10600;53.096;8.802;2023-02-11T07:01:47;7.40;99.90
20881;DHT22;10600;53.096;8.802;2023-02-11T07:02:48;7.40;99.90
20881;DHT22;10600;53.096;8.802;2023-02-11T07:03:49;7.40;99.90
20881;DHT22;10600;53.096;8.802;2023-02-11T07:04:50;7.40;99.90
20881;DHT22;10600;53.096;8.802;2023-02-11T07:05:50;7.40;99.90
20881;DHT22;10600;53.096;8.802;2023-02-11T07:06:51;7.40;99.90
20881;DHT22;10600;53.096;8.802;2023-02-11T07:07:52;7.40;99.90
20881;DHT22;10600;53.096;8.802;2023-02-11T07:08:54;7.40;99.90
20881;DHT22;10600;53.096;8.802;2023-02-11T07:09:54;7.50;99.90
20881;DHT22;10600;53.096;8.802;2023-02-11T07:10:55;7.50;99.90